Okinawa, Japan

5:03 AM JST on September 05, 2015 (GMT +0900)
Kadena Air Base | | Change Station
CLOSE
Current Station
Airport
Location: Okinawa,
Elevation: 148 ft
Nearby Weather Stations

Elev 148 ft 26.36 °N, 127.77 °E | Updated 5 minutes ago

Scattered Clouds
Scattered Clouds
79 °F
Feels Like 79 °F
N
0
Wind Variable Wind from North

Today
High -- | Low -- °F
--% Chance of Precip.
Yesterday
High -- | Low -- °F
Precip. -- in
6:10 AM 6:45 PM
Waning Gibbous, 56% visible
Pressure 29.88 in
Visibility 8.0 miles
Clouds Scattered Clouds 1400 ft
Dew Point 79 °F
Humidity 100%
Rainfall 0.00 in
Snow Depth Not available.
UV 0 out of 12
Pollen Not available.
Air Quality Not available.
Flu Activity Not available.
METAR RODN 041958Z AUTO 00000KT 8SM R23/5500FT SCT014 26/26 A2986 RMK AO2 SLP116 T02620262
Pressure 29.88 in
Visibility 8.0 miles
Clouds Scattered Clouds 1400 ft
Dew Point 79 °F
Humidity 100%
Rainfall 0.00 in
Snow Depth Not available.
UV 0 out of 12
Pollen Not available.
Air Quality Not available.
Flu Activity Not available.
METAR RODN 041958Z AUTO 00000KT 8SM R23/5500FT SCT014 26/26 A2986 RMK AO2 SLP116 T02620262

10-Day Weather Forecast

×

Almanac

Astronomy

Sep. 05, 2015 Rise Set
Actual Time
Civil Twilight
Nautical Twilight
Astronomical Twilight
Moon
Length of Visible Light
Length of Day
Tomorrow will be .
, % of the Moon is Illuminated

Today's Extremes

Country Highs Country Lows

Community

WunderPhotos

Upload Photos

1,852,272 photos uploaded!

WunderBlogs® & News

Nearby

Air Quality

  Air Quality AQ Index Pollutant
Not available.

Snow Depth

Station Depth Elevation

Earthquake Activity

City Distance Mag. Time & Date
Minimum magnitude displayed is 2.5.

Coastal Water Temperatures

Place Temperature

Stations

Nearby Weather Stations

Station Location Temp. Windchill Dew Point Humidity Wind Precip. Elev Updated Type